sensor_id;sensor_type;location;lat;lon;timestamp;P1;durP1;ratioP1;P2;durP2;ratioP2
49776;SDS011;35673;51.482;7.436;2022-11-15T00:01:47;8.43;;;5.32;;
49776;SDS011;35673;51.482;7.436;2022-11-15T00:04:12;7.45;;;4.95;;
49776;SDS011;35673;51.482;7.436;2022-11-15T00:06:38;9.45;;;6.13;;
49776;SDS011;35673;51.482;7.436;2022-11-15T00:09:03;9.15;;;4.68;;
49776;SDS011;35673;51.482;7.436;2022-11-15T00:11:29;8.07;;;5.15;;
49776;SDS011;35673;51.482;7.436;2022-11-15T00:13:55;7.30;;;5.40;;
49776;SDS011;35673;51.482;7.436;2022-11-15T00:16:21;7.80;;;5.55;;
49776;SDS011;35673;51.482;7.436;2022-11-15T00:18:47;10.93;;;5.45;;
49776;SDS011;35673;51.482;7.436;2022-11-15T00:21:13;10.15;;;5.78;;
49776;SDS011;35673;51.482;7.436;2022-11-15T00:23:40;9.30;;;4.72;;
49776;SDS011;35673;51.482;7.436;2022-11-15T00:26:06;8.07;;;5.45;;
49776;SDS011;35673;51.482;7.436;2022-11-15T00:28:35;7.97;;;5.45;;
49776;SDS011;35673;51.482;7.436;2022-11-15T00:31:04;7.78;;;4.95;;
49776;SDS011;35673;51.482;7.436;2022-11-15T00:33:33;8.38;;;4.97;;
49776;SDS011;35673;51.482;7.436;2022-11-15T00:36:03;7.93;;;5.35;;
49776;SDS011;35673;51.482;7.436;2022-11-15T00:38:30;8.68;;;5.30;;
49776;SDS011;35673;51.482;7.436;2022-11-15T00:40:57;7.97;;;6.13;;
49776;SDS011;35673;51.482;7.436;2022-11-15T00:43:23;7.20;;;5.13;;
49776;SDS011;35673;51.482;7.436;2022-11-15T00:45:48;7.18;;;4.78;;
49776;SDS011;35673;51.482;7.436;2022-11-15T00:48:14;9.65;;;5.53;;
49776;SDS011;35673;51.482;7.436;2022-11-15T00:50:39;7.65;;;4.65;;
49776;SDS011;35673;51.482;7.436;2022-11-15T00:53:05;6.80;;;5.13;;
49776;SDS011;35673;51.482;7.436;2022-11-15T00:55:31;8.18;;;4.97;;
49776;SDS011;35673;51.482;7.436;2022-11-15T00:57:56;9.20;;;5.35;;
49776;SDS011;35673;51.482;7.436;2022-11-15T01:00:22;6.88;;;4.88;;
49776;SDS011;35673;51.482;7.436;2022-11-15T01:02:48;9.13;;;4.72;;
49776;SDS011;35673;51.482;7.436;2022-11-15T01:05:13;7.43;;;4.95;;
49776;SDS011;35673;51.482;7.436;2022-11-15T01:07:39;7.65;;;5.43;;
49776;SDS011;35673;51.482;7.436;2022-11-15T01:10:05;9.10;;;4.90;;
49776;SDS011;35673;51.482;7.436;2022-11-15T01:12:31;7.50;;;4.93;;
49776;SDS011;35673;51.482;7.436;2022-11-15T01:14:56;9.48;;;5.30;;
49776;SDS011;35673;51.482;7.436;2022-11-15T01:17:22;6.85;;;5.00;;
49776;SDS011;35673;51.482;7.436;2022-11-15T01:19:48;9.35;;;4.85;;
49776;SDS011;35673;51.482;7.436;2022-11-15T01:22:13;10.30;;;5.03;;
49776;SDS011;35673;51.482;7.436;2022-11-15T01:24:39;10.55;;;5.40;;
49776;SDS011;35673;51.482;7.436;2022-11-15T01:27:05;8.43;;;5.22;;
49776;SDS011;35673;51.482;7.436;2022-11-15T01:29:30;7.93;;;5.30;;
49776;SDS011;35673;51.482;7.436;2022-11-15T01:31:56;7.35;;;4.50;;
49776;SDS011;35673;51.482;7.436;2022-11-15T01:34:22;8.38;;;4.93;;
49776;SDS011;35673;51.482;7.436;2022-11-15T01:36:48;9.73;;;5.40;;
49776;SDS011;35673;51.482;7.436;2022-11-15T01:39:13;10.43;;;5.38;;
49776;SDS011;35673;51.482;7.436;2022-11-15T01:41:40;8.70;;;5.15;;
49776;SDS011;35673;51.482;7.436;2022-11-15T01:47:22;6.25;;;4.68;;
49776;SDS011;35673;51.482;7.436;2022-11-15T01:49:57;6.93;;;5.50;;
49776;SDS011;35673;51.482;7.436;2022-11-15T01:52:26;7.70;;;4.40;;
49776;SDS011;35673;51.482;7.436;2022-11-15T01:54:56;6.90;;;4.90;;
49776;SDS011;35673;51.482;7.436;2022-11-15T01:57:34;7.30;;;4.55;;
49776;SDS011;35673;51.482;7.436;2022-11-15T02:00:00;6.57;;;4.97;;
49776;SDS011;35673;51.482;7.436;2022-11-15T02:02:28;7.47;;;4.97;;
49776;SDS011;35673;51.482;7.436;2022-11-15T02:04:54;7.05;;;4.82;;
49776;SDS011;35673;51.482;7.436;2022-11-15T02:07:19;7.05;;;5.35;;
49776;SDS011;35673;51.482;7.436;2022-11-15T02:09:47;8.25;;;4.95;;
49776;SDS011;35673;51.482;7.436;2022-11-15T02:12:14;6.10;;;4.55;;
49776;SDS011;35673;51.482;7.436;2022-11-15T02:14:45;9.63;;;5.72;;
49776;SDS011;35673;51.482;7.436;2022-11-15T02:17:18;11.43;;;4.93;;
49776;SDS011;35673;51.482;7.436;2022-11-15T02:33:26;9.52;;;5.63;;
49776;SDS011;35673;51.482;7.436;2022-11-15T02:36:03;7.78;;;4.97;;
49776;SDS011;35673;51.482;7.436;2022-11-15T02:41:13;8.88;;;4.38;;
49776;SDS011;35673;51.482;7.436;2022-11-15T02:49:28;7.28;;;4.93;;
49776;SDS011;35673;51.482;7.436;2022-11-15T02:51:56;13.50;;;5.88;;
49776;SDS011;35673;51.482;7.436;2022-11-15T02:54:24;9.13;;;5.28;;
49776;SDS011;35673;51.482;7.436;2022-11-15T02:56:52;10.32;;;6.38;;
49776;SDS011;35673;51.482;7.436;2022-11-15T02:59:23;8.25;;;5.40;;
49776;SDS011;35673;51.482;7.436;2022-11-15T03:02:24;10.77;;;5.97;;
49776;SDS011;35673;51.482;7.436;2022-11-15T03:05:11;10.88;;;5.88;;
49776;SDS011;35673;51.482;7.436;2022-11-15T03:11:07;7.93;;;5.35;;
49776;SDS011;35673;51.482;7.436;2022-11-15T03:16:13;6.88;;;4.50;;
49776;SDS011;35673;51.482;7.436;2022-11-15T03:18:48;7.80;;;5.10;;
49776;SDS011;35673;51.482;7.436;2022-11-15T03:21:22;8.88;;;5.72;;
49776;SDS011;35673;51.482;7.436;2022-11-15T03:23:49;7.15;;;5.40;;
49776;SDS011;35673;51.482;7.436;2022-11-15T03:26:16;10.80;;;5.65;;
49776;SDS011;35673;51.482;7.436;2022-11-15T03:31:19;7.90;;;5.35;;
49776;SDS011;35673;51.482;7.436;2022-11-15T03:34:06;6.22;;;4.50;;
49776;SDS011;35673;51.482;7.436;2022-11-15T03:36:37;8.57;;;5.78;;
49776;SDS011;35673;51.482;7.436;2022-11-15T03:39:05;7.93;;;4.90;;
49776;SDS011;35673;51.482;7.436;2022-11-15T03:41:55;9.63;;;5.43;;
49776;SDS011;35673;51.482;7.436;2022-11-15T03:47:25;8.63;;;4.95;;
49776;SDS011;35673;51.482;7.436;2022-11-15T03:49:59;6.63;;;4.35;;
49776;SDS011;35673;51.482;7.436;2022-11-15T03:52:33;7.45;;;4.20;;
49776;SDS011;35673;51.482;7.436;2022-11-15T03:55:00;6.25;;;4.85;;
49776;SDS011;35673;51.482;7.436;2022-11-15T03:57:27;6.03;;;4.82;;
49776;SDS011;35673;51.482;7.436;2022-11-15T03:59:53;5.97;;;4.22;;
49776;SDS011;35673;51.482;7.436;2022-11-15T04:02:18;6.95;;;4.63;;
49776;SDS011;35673;51.482;7.436;2022-11-15T04:04:44;6.50;;;4.40;;
49776;SDS011;35673;51.482;7.436;2022-11-15T04:07:10;6.75;;;5.15;;
49776;SDS011;35673;51.482;7.436;2022-11-15T04:09:36;5.85;;;4.20;;
49776;SDS011;35673;51.482;7.436;2022-11-15T04:12:24;7.05;;;5.05;;
49776;SDS011;35673;51.482;7.436;2022-11-15T04:15:05;5.75;;;3.80;;
49776;SDS011;35673;51.482;7.436;2022-11-15T04:17:54;6.90;;;4.45;;
49776;SDS011;35673;51.482;7.436;2022-11-15T04:20:20;8.55;;;4.55;;
49776;SDS011;35673;51.482;7.436;2022-11-15T04:25:56;7.90;;;4.60;;
49776;SDS011;35673;51.482;7.436;2022-11-15T04:28:23;12.55;;;5.00;;
49776;SDS011;35673;51.482;7.436;2022-11-15T04:30:49;6.18;;;4.32;;
49776;SDS011;35673;51.482;7.436;2022-11-15T04:33:15;6.55;;;4.35;;
49776;SDS011;35673;51.482;7.436;2022-11-15T04:35:41;5.93;;;4.65;;
49776;SDS011;35673;51.482;7.436;2022-11-15T04:38:08;7.70;;;4.93;;
49776;SDS011;35673;51.482;7.436;2022-11-15T04:40:35;9.40;;;4.65;;
49776;SDS011;35673;51.482;7.436;2022-11-15T04:43:01;6.43;;;4.60;;
49776;SDS011;35673;51.482;7.436;2022-11-15T04:45:27;9.65;;;5.70;;
49776;SDS011;35673;51.482;7.436;2022-11-15T04:47:53;6.47;;;4.30;;
49776;SDS011;35673;51.482;7.436;2022-11-15T04:50:18;6.47;;;5.65;;
49776;SDS011;35673;51.482;7.436;2022-11-15T04:52:49;6.60;;;5.10;;
49776;SDS011;35673;51.482;7.436;2022-11-15T04:55:16;9.20;;;5.10;;
49776;SDS011;35673;51.482;7.436;2022-11-15T04:57:42;8.05;;;5.15;;
49776;SDS011;35673;51.482;7.436;2022-11-15T05:00:09;5.70;;;4.97;;
49776;SDS011;35673;51.482;7.436;2022-11-15T05:02:37;7.45;;;4.82;;
49776;SDS011;35673;51.482;7.436;2022-11-15T05:05:21;5.68;;;3.95;;
49776;SDS011;35673;51.482;7.436;2022-11-15T05:07:48;5.50;;;4.35;;
49776;SDS011;35673;51.482;7.436;2022-11-15T05:10:13;5.10;;;4.15;;
49776;SDS011;35673;51.482;7.436;2022-11-15T05:12:39;9.32;;;5.07;;
49776;SDS011;35673;51.482;7.436;2022-11-15T05:15:05;6.53;;;4.60;;
49776;SDS011;35673;51.482;7.436;2022-11-15T05:17:31;6.30;;;4.57;;
49776;SDS011;35673;51.482;7.436;2022-11-15T05:19:56;7.85;;;4.32;;
49776;SDS011;35673;51.482;7.436;2022-11-15T05:22:22;5.30;;;4.70;;
49776;SDS011;35673;51.482;7.436;2022-11-15T05:24:48;5.07;;;4.40;;
49776;SDS011;35673;51.482;7.436;2022-11-15T05:27:13;6.43;;;4.45;;
49776;SDS011;35673;51.482;7.436;2022-11-15T05:29:39;6.25;;;4.63;;
49776;SDS011;35673;51.482;7.436;2022-11-15T05:32:05;5.45;;;4.28;;
49776;SDS011;35673;51.482;7.436;2022-11-15T05:34:31;7.22;;;4.28;;
49776;SDS011;35673;51.482;7.436;2022-11-15T05:36:57;6.38;;;4.25;;
49776;SDS011;35673;51.482;7.436;2022-11-15T05:39:23;6.10;;;4.50;;
49776;SDS011;35673;51.482;7.436;2022-11-15T05:41:52;6.22;;;4.78;;
49776;SDS011;35673;51.482;7.436;2022-11-15T05:44:21;6.93;;;4.50;;
49776;SDS011;35673;51.482;7.436;2022-11-15T05:46:49;4.88;;;3.60;;
49776;SDS011;35673;51.482;7.436;2022-11-15T05:49:18;5.55;;;4.07;;
49776;SDS011;35673;51.482;7.436;2022-11-15T05:51:47;5.22;;;4.30;;
49776;SDS011;35673;51.482;7.436;2022-11-15T05:54:14;5.32;;;3.78;;
49776;SDS011;35673;51.482;7.436;2022-11-15T05:56:42;6.40;;;4.43;;
49776;SDS011;35673;51.482;7.436;2022-11-15T05:59:08;6.85;;;4.15;;
49776;SDS011;35673;51.482;7.436;2022-11-15T06:01:35;5.07;;;3.70;;
49776;SDS011;35673;51.482;7.436;2022-11-15T06:04:01;5.53;;;3.78;;
49776;SDS011;35673;51.482;7.436;2022-11-15T06:06:27;5.93;;;4.28;;
49776;SDS011;35673;51.482;7.436;2022-11-15T06:08:53;5.55;;;4.35;;
49776;SDS011;35673;51.482;7.436;2022-11-15T06:11:19;7.07;;;3.88;;
49776;SDS011;35673;51.482;7.436;2022-11-15T06:13:44;5.32;;;3.78;;
49776;SDS011;35673;51.482;7.436;2022-11-15T06:16:10;4.53;;;3.42;;
49776;SDS011;35673;51.482;7.436;2022-11-15T06:18:36;5.30;;;3.38;;
49776;SDS011;35673;51.482;7.436;2022-11-15T06:21:02;4.18;;;3.35;;
49776;SDS011;35673;51.482;7.436;2022-11-15T06:23:32;7.13;;;4.35;;
49776;SDS011;35673;51.482;7.436;2022-11-15T06:25:59;6.00;;;3.50;;
49776;SDS011;35673;51.482;7.436;2022-11-15T06:28:27;3.95;;;3.40;;
49776;SDS011;35673;51.482;7.436;2022-11-15T06:30:54;3.65;;;3.35;;
49776;SDS011;35673;51.482;7.436;2022-11-15T06:33:19;3.58;;;2.90;;
49776;SDS011;35673;51.482;7.436;2022-11-15T06:35:45;4.78;;;3.03;;
49776;SDS011;35673;51.482;7.436;2022-11-15T06:38:10;4.47;;;3.03;;
49776;SDS011;35673;51.482;7.436;2022-11-15T06:40:37;5.72;;;3.20;;
49776;SDS011;35673;51.482;7.436;2022-11-15T06:43:04;4.35;;;2.67;;
49776;SDS011;35673;51.482;7.436;2022-11-15T06:45:30;2.58;;;2.25;;
49776;SDS011;35673;51.482;7.436;2022-11-15T06:47:57;3.15;;;2.70;;
49776;SDS011;35673;51.482;7.436;2022-11-15T06:50:23;3.50;;;2.35;;
49776;SDS011;35673;51.482;7.436;2022-11-15T06:52:49;4.40;;;2.22;;
49776;SDS011;35673;51.482;7.436;2022-11-15T06:55:14;2.15;;;1.95;;
49776;SDS011;35673;51.482;7.436;2022-11-15T06:57:49;3.67;;;2.28;;
49776;SDS011;35673;51.482;7.436;2022-11-15T07:00:16;2.20;;;2.00;;
49776;SDS011;35673;51.482;7.436;2022-11-15T07:02:43;3.97;;;2.10;;
49776;SDS011;35673;51.482;7.436;2022-11-15T07:05:09;3.75;;;2.35;;
49776;SDS011;35673;51.482;7.436;2022-11-15T07:07:35;3.83;;;1.95;;
49776;SDS011;35673;51.482;7.436;2022-11-15T07:10:01;4.65;;;1.90;;
49776;SDS011;35673;51.482;7.436;2022-11-15T07:12:26;2.85;;;2.05;;
49776;SDS011;35673;51.482;7.436;2022-11-15T07:14:52;2.78;;;1.65;;
49776;SDS011;35673;51.482;7.436;2022-11-15T07:17:17;2.30;;;1.60;;
49776;SDS011;35673;51.482;7.436;2022-11-15T07:19:43;3.50;;;2.17;;
49776;SDS011;35673;51.482;7.436;2022-11-15T07:22:08;3.30;;;2.30;;
49776;SDS011;35673;51.482;7.436;2022-11-15T07:24:34;3.65;;;1.73;;
49776;SDS011;35673;51.482;7.436;2022-11-15T07:26:59;2.83;;;1.67;;
49776;SDS011;35673;51.482;7.436;2022-11-15T07:29:25;1.65;;;1.55;;
49776;SDS011;35673;51.482;7.436;2022-11-15T07:31:51;2.60;;;1.90;;
49776;SDS011;35673;51.482;7.436;2022-11-15T07:34:16;2.80;;;1.58;;
49776;SDS011;35673;51.482;7.436;2022-11-15T07:36:42;2.80;;;1.60;;
49776;SDS011;35673;51.482;7.436;2022-11-15T07:39:07;3.05;;;1.70;;
49776;SDS011;35673;51.482;7.436;2022-11-15T07:41:33;4.07;;;1.63;;
49776;SDS011;35673;51.482;7.436;2022-11-15T07:43:58;2.28;;;1.50;;
49776;SDS011;35673;51.482;7.436;2022-11-15T07:46:25;2.75;;;1.67;;
49776;SDS011;35673;51.482;7.436;2022-11-15T07:48:50;2.13;;;1.30;;
49776;SDS011;35673;51.482;7.436;2022-11-15T07:51:16;1.95;;;1.35;;
49776;SDS011;35673;51.482;7.436;2022-11-15T07:53:42;4.93;;;1.40;;
49776;SDS011;35673;51.482;7.436;2022-11-15T07:56:08;9.60;;;1.73;;
49776;SDS011;35673;51.482;7.436;2022-11-15T07:58:34;4.93;;;2.15;;
49776;SDS011;35673;51.482;7.436;2022-11-15T08:01:07;3.63;;;1.35;;
49776;SDS011;35673;51.482;7.436;2022-11-15T08:03:34;4.75;;;1.35;;
49776;SDS011;35673;51.482;7.436;2022-11-15T08:06:00;2.30;;;1.52;;
49776;SDS011;35673;51.482;7.436;2022-11-15T08:08:27;1.50;;;1.20;;
49776;SDS011;35673;51.482;7.436;2022-11-15T08:10:52;1.52;;;1.13;;
49776;SDS011;35673;51.482;7.436;2022-11-15T08:13:18;1.95;;;1.73;;
49776;SDS011;35673;51.482;7.436;2022-11-15T08:15:44;1.50;;;1.30;;
49776;SDS011;35673;51.482;7.436;2022-11-15T08:18:11;1.88;;;1.23;;
49776;SDS011;35673;51.482;7.436;2022-11-15T08:20:41;3.83;;;1.27;;
49776;SDS011;35673;51.482;7.436;2022-11-15T08:23:07;6.18;;;1.73;;
49776;SDS011;35673;51.482;7.436;2022-11-15T08:25:35;2.60;;;1.20;;
49776;SDS011;35673;51.482;7.436;2022-11-15T08:28:02;1.77;;;1.30;;
49776;SDS011;35673;51.482;7.436;2022-11-15T08:30:30;2.90;;;1.65;;
49776;SDS011;35673;51.482;7.436;2022-11-15T08:32:59;3.15;;;1.30;;
49776;SDS011;35673;51.482;7.436;2022-11-15T08:35:24;4.90;;;1.58;;
49776;SDS011;35673;51.482;7.436;2022-11-15T08:37:51;1.70;;;1.13;;
49776;SDS011;35673;51.482;7.436;2022-11-15T08:40:18;2.10;;;1.25;;
49776;SDS011;35673;51.482;7.436;2022-11-15T08:42:45;1.50;;;1.27;;
49776;SDS011;35673;51.482;7.436;2022-11-15T08:45:11;2.35;;;1.23;;
49776;SDS011;35673;51.482;7.436;2022-11-15T08:47:37;1.77;;;0.80;;
49776;SDS011;35673;51.482;7.436;2022-11-15T08:50:03;3.65;;;1.05;;
49776;SDS011;35673;51.482;7.436;2022-11-15T08:52:29;2.17;;;1.23;;
49776;SDS011;35673;51.482;7.436;2022-11-15T08:54:54;9.35;;;2.38;;
49776;SDS011;35673;51.482;7.436;2022-11-15T08:57:20;2.95;;;1.00;;
49776;SDS011;35673;51.482;7.436;2022-11-15T08:59:45;2.80;;;1.10;;
49776;SDS011;35673;51.482;7.436;2022-11-15T09:02:12;3.42;;;1.30;;
49776;SDS011;35673;51.482;7.436;2022-11-15T09:04:41;2.28;;;1.42;;
49776;SDS011;35673;51.482;7.436;2022-11-15T09:07:08;1.80;;;0.90;;
49776;SDS011;35673;51.482;7.436;2022-11-15T09:09:34;4.95;;;1.38;;
49776;SDS011;35673;51.482;7.436;2022-11-15T09:12:00;1.27;;;0.85;;
49776;SDS011;35673;51.482;7.436;2022-11-15T09:14:26;2.70;;;1.02;;
49776;SDS011;35673;51.482;7.436;2022-11-15T09:16:51;3.10;;;0.85;;
49776;SDS011;35673;51.482;7.436;2022-11-15T09:19:17;4.47;;;1.35;;
49776;SDS011;35673;51.482;7.436;2022-11-15T09:21:42;1.25;;;0.82;;
49776;SDS011;35673;51.482;7.436;2022-11-15T09:24:08;0.73;;;0.70;;
49776;SDS011;35673;51.482;7.436;2022-11-15T09:26:33;2.08;;;0.65;;
49776;SDS011;35673;51.482;7.436;2022-11-15T09:28:59;1.05;;;0.57;;
49776;SDS011;35673;51.482;7.436;2022-11-15T09:31:26;1.30;;;0.80;;
49776;SDS011;35673;51.482;7.436;2022-11-15T09:33:52;1.20;;;0.80;;
49776;SDS011;35673;51.482;7.436;2022-11-15T09:36:18;1.42;;;0.90;;
49776;SDS011;35673;51.482;7.436;2022-11-15T09:38:43;1.60;;;0.90;;
49776;SDS011;35673;51.482;7.436;2022-11-15T09:48:59;1.75;;;0.80;;
49776;SDS011;35673;51.482;7.436;2022-11-15T09:51:36;0.70;;;0.55;;
49776;SDS011;35673;51.482;7.436;2022-11-15T09:56:58;1.35;;;0.80;;
49776;SDS011;35673;51.482;7.436;2022-11-15T10:04:45;0.85;;;0.60;;
49776;SDS011;35673;51.482;7.436;2022-11-15T10:09:56;1.23;;;0.65;;
49776;SDS011;35673;51.482;7.436;2022-11-15T10:12:42;2.65;;;0.90;;
49776;SDS011;35673;51.482;7.436;2022-11-15T10:15:14;1.40;;;0.82;;
49776;SDS011;35673;51.482;7.436;2022-11-15T10:20:34;2.38;;;0.60;;
49776;SDS011;35673;51.482;7.436;2022-11-15T10:23:10;2.33;;;0.60;;
49776;SDS011;35673;51.482;7.436;2022-11-15T10:30:40;1.23;;;0.70;;
49776;SDS011;35673;51.482;7.436;2022-11-15T10:33:17;2.58;;;0.85;;
49776;SDS011;35673;51.482;7.436;2022-11-15T10:35:44;3.03;;;0.70;;
49776;SDS011;35673;51.482;7.436;2022-11-15T10:38:10;0.65;;;0.65;;
49776;SDS011;35673;51.482;7.436;2022-11-15T10:40:37;0.55;;;0.45;;
49776;SDS011;35673;51.482;7.436;2022-11-15T10:45:36;1.17;;;0.60;;
49776;SDS011;35673;51.482;7.436;2022-11-15T10:50:36;4.50;;;0.68;;
49776;SDS011;35673;51.482;7.436;2022-11-15T10:53:03;0.95;;;0.60;;
49776;SDS011;35673;51.482;7.436;2022-11-15T10:55:37;1.15;;;0.68;;
49776;SDS011;35673;51.482;7.436;2022-11-15T10:58:19;3.40;;;0.82;;
49776;SDS011;35673;51.482;7.436;2022-11-15T11:01:11;1.85;;;0.60;;
49776;SDS011;35673;51.482;7.436;2022-11-15T11:03:42;2.05;;;0.55;;
49776;SDS011;35673;51.482;7.436;2022-11-15T11:06:16;2.20;;;0.50;;
49776;SDS011;35673;51.482;7.436;2022-11-15T11:08:56;1.30;;;0.60;;
49776;SDS011;35673;51.482;7.436;2022-11-15T11:11:59;3.63;;;0.63;;
49776;SDS011;35673;51.482;7.436;2022-11-15T11:14:22;0.82;;;0.50;;
49776;SDS011;35673;51.482;7.436;2022-11-15T11:22:20;1.65;;;0.45;;
49776;SDS011;35673;51.482;7.436;2022-11-15T11:33:59;1.38;;;0.70;;
49776;SDS011;35673;51.482;7.436;2022-11-15T11:42:12;1.85;;;0.60;;
49776;SDS011;35673;51.482;7.436;2022-11-15T11:45:05;1.52;;;0.70;;
49776;SDS011;35673;51.482;7.436;2022-11-15T11:48:04;1.58;;;0.70;;
49776;SDS011;35673;51.482;7.436;2022-11-15T11:50:38;2.00;;;0.52;;
49776;SDS011;35673;51.482;7.436;2022-11-15T11:56:37;4.00;;;0.73;;
49776;SDS011;35673;51.482;7.436;2022-11-15T11:58:43;1.42;;;0.55;;
49776;SDS011;35673;51.482;7.436;2022-11-15T12:03:47;1.08;;;0.40;;
49776;SDS011;35673;51.482;7.436;2022-11-15T12:06:21;1.20;;;0.40;;
49776;SDS011;35673;51.482;7.436;2022-11-15T12:08:53;1.02;;;0.55;;
49776;SDS011;35673;51.482;7.436;2022-11-15T12:11:56;2.05;;;0.47;;
49776;SDS011;35673;51.482;7.436;2022-11-15T12:14:33;2.83;;;0.55;;
49776;SDS011;35673;51.482;7.436;2022-11-15T12:17:01;3.13;;;0.60;;
49776;SDS011;35673;51.482;7.436;2022-11-15T12:19:26;1.15;;;0.45;;
49776;SDS011;35673;51.482;7.436;2022-11-15T12:21:56;2.72;;;0.43;;
49776;SDS011;35673;51.482;7.436;2022-11-15T12:24:25;1.27;;;0.40;;
49776;SDS011;35673;51.482;7.436;2022-11-15T12:27:17;2.42;;;0.30;;
49776;SDS011;35673;51.482;7.436;2022-11-15T12:29:56;0.50;;;0.20;;
49776;SDS011;35673;51.482;7.436;2022-11-15T12:32:28;1.52;;;0.40;;
49776;SDS011;35673;51.482;7.436;2022-11-15T12:34:56;1.00;;;0.30;;
49776;SDS011;35673;51.482;7.436;2022-11-15T12:40:16;1.35;;;0.40;;
49776;SDS011;35673;51.482;7.436;2022-11-15T12:45:42;2.40;;;1.08;;
49776;SDS011;35673;51.482;7.436;2022-11-15T13:06:45;3.33;;;0.52;;
49776;SDS011;35673;51.482;7.436;2022-11-15T13:11:57;1.10;;;0.45;;
49776;SDS011;35673;51.482;7.436;2022-11-15T13:17:24;3.72;;;0.80;;
49776;SDS011;35673;51.482;7.436;2022-11-15T13:22:44;1.95;;;0.50;;
49776;SDS011;35673;51.482;7.436;2022-11-15T13:27:48;2.22;;;0.50;;
49776;SDS011;35673;51.482;7.436;2022-11-15T13:30:18;0.77;;;0.47;;
49776;SDS011;35673;51.482;7.436;2022-11-15T13:32:46;1.85;;;0.68;;
49776;SDS011;35673;51.482;7.436;2022-11-15T13:35:28;2.08;;;0.50;;
49776;SDS011;35673;51.482;7.436;2022-11-15T13:37:56;1.77;;;0.57;;
49776;SDS011;35673;51.482;7.436;2022-11-15T13:40:29;1.23;;;0.50;;
49776;SDS011;35673;51.482;7.436;2022-11-15T13:42:59;2.97;;;0.77;;
49776;SDS011;35673;51.482;7.436;2022-11-15T13:48:40;2.60;;;0.80;;
49776;SDS011;35673;51.482;7.436;2022-11-15T13:51:09;2.05;;;0.40;;
49776;SDS011;35673;51.482;7.436;2022-11-15T13:53:36;3.08;;;0.60;;
49776;SDS011;35673;51.482;7.436;2022-11-15T13:56:05;2.05;;;0.73;;
49776;SDS011;35673;51.482;7.436;2022-11-15T13:58:31;4.32;;;1.05;;
49776;SDS011;35673;51.482;7.436;2022-11-15T14:01:01;5.43;;;1.00;;
49776;SDS011;35673;51.482;7.436;2022-11-15T14:06:03;2.05;;;0.55;;
49776;SDS011;35673;51.482;7.436;2022-11-15T14:11:26;1.63;;;0.63;;
49776;SDS011;35673;51.482;7.436;2022-11-15T14:16:34;3.00;;;0.98;;
49776;SDS011;35673;51.482;7.436;2022-11-15T14:19:04;2.75;;;0.93;;
49776;SDS011;35673;51.482;7.436;2022-11-15T14:21:31;3.33;;;0.98;;
49776;SDS011;35673;51.482;7.436;2022-11-15T14:24:19;2.63;;;1.10;;
49776;SDS011;35673;51.482;7.436;2022-11-15T14:26:46;3.10;;;1.20;;
49776;SDS011;35673;51.482;7.436;2022-11-15T14:29:22;1.83;;;1.17;;
49776;SDS011;35673;51.482;7.436;2022-11-15T14:31:47;2.55;;;0.90;;
49776;SDS011;35673;51.482;7.436;2022-11-15T14:34:13;4.60;;;1.40;;
49776;SDS011;35673;51.482;7.436;2022-11-15T14:36:39;2.13;;;1.30;;
49776;SDS011;35673;51.482;7.436;2022-11-15T14:39:07;3.50;;;1.13;;
49776;SDS011;35673;51.482;7.436;2022-11-15T14:41:36;2.92;;;0.90;;
49776;SDS011;35673;51.482;7.436;2022-11-15T14:44:05;1.58;;;1.00;;
49776;SDS011;35673;51.482;7.436;2022-11-15T14:46:31;3.35;;;1.33;;
49776;SDS011;35673;51.482;7.436;2022-11-15T14:48:57;4.00;;;1.23;;
49776;SDS011;35673;51.482;7.436;2022-11-15T14:51:23;2.00;;;1.10;;
49776;SDS011;35673;51.482;7.436;2022-11-15T14:53:48;3.45;;;1.05;;
49776;SDS011;35673;51.482;7.436;2022-11-15T14:56:14;2.85;;;1.10;;
49776;SDS011;35673;51.482;7.436;2022-11-15T14:58:41;1.83;;;1.05;;
49776;SDS011;35673;51.482;7.436;2022-11-15T15:01:25;2.13;;;0.88;;
49776;SDS011;35673;51.482;7.436;2022-11-15T15:03:52;2.40;;;1.00;;
49776;SDS011;35673;51.482;7.436;2022-11-15T15:06:20;2.40;;;1.10;;
49776;SDS011;35673;51.482;7.436;2022-11-15T15:08:47;2.10;;;0.88;;
49776;SDS011;35673;51.482;7.436;2022-11-15T15:11:28;3.15;;;1.42;;
49776;SDS011;35673;51.482;7.436;2022-11-15T15:13:55;1.17;;;1.00;;
49776;SDS011;35673;51.482;7.436;2022-11-15T15:16:26;7.30;;;1.50;;
49776;SDS011;35673;51.482;7.436;2022-11-15T15:18:52;2.40;;;1.10;;
49776;SDS011;35673;51.482;7.436;2022-11-15T15:21:24;3.13;;;1.80;;
49776;SDS011;35673;51.482;7.436;2022-11-15T15:23:56;2.58;;;1.30;;
49776;SDS011;35673;51.482;7.436;2022-11-15T15:26:22;2.22;;;1.20;;
49776;SDS011;35673;51.482;7.436;2022-11-15T15:28:48;3.20;;;1.58;;
49776;SDS011;35673;51.482;7.436;2022-11-15T15:31:16;3.75;;;0.98;;
49776;SDS011;35673;51.482;7.436;2022-11-15T15:33:42;1.48;;;1.02;;
49776;SDS011;35673;51.482;7.436;2022-11-15T15:36:11;2.78;;;1.13;;
49776;SDS011;35673;51.482;7.436;2022-11-15T15:38:38;3.85;;;1.20;;
49776;SDS011;35673;51.482;7.436;2022-11-15T15:41:15;3.83;;;1.27;;
49776;SDS011;35673;51.482;7.436;2022-11-15T15:43:41;2.63;;;1.58;;
49776;SDS011;35673;51.482;7.436;2022-11-15T15:46:08;2.45;;;1.20;;
49776;SDS011;35673;51.482;7.436;2022-11-15T15:48:36;1.50;;;1.00;;
49776;SDS011;35673;51.482;7.436;2022-11-15T15:51:03;1.85;;;0.88;;
49776;SDS011;35673;51.482;7.436;2022-11-15T15:53:28;3.47;;;1.17;;
49776;SDS011;35673;51.482;7.436;2022-11-15T15:55:55;1.92;;;1.15;;
49776;SDS011;35673;51.482;7.436;2022-11-15T15:58:21;2.15;;;1.30;;
49776;SDS011;35673;51.482;7.436;2022-11-15T16:00:46;1.63;;;1.25;;
49776;SDS011;35673;51.482;7.436;2022-11-15T16:03:12;2.97;;;1.35;;
49776;SDS011;35673;51.482;7.436;2022-11-15T16:05:37;3.20;;;1.88;;
49776;SDS011;35673;51.482;7.436;2022-11-15T16:08:03;2.75;;;1.40;;
49776;SDS011;35673;51.482;7.436;2022-11-15T16:10:32;3.97;;;2.05;;
49776;SDS011;35673;51.482;7.436;2022-11-15T16:13:02;2.83;;;1.27;;
49776;SDS011;35673;51.482;7.436;2022-11-15T16:15:29;2.15;;;1.70;;
49776;SDS011;35673;51.482;7.436;2022-11-15T16:17:57;3.47;;;1.40;;
49776;SDS011;35673;51.482;7.436;2022-11-15T16:23:02;1.58;;;1.35;;
49776;SDS011;35673;51.482;7.436;2022-11-15T16:25:30;3.13;;;1.48;;
49776;SDS011;35673;51.482;7.436;2022-11-15T16:27:59;2.77;;;1.40;;
49776;SDS011;35673;51.482;7.436;2022-11-15T16:30:24;5.78;;;1.40;;
49776;SDS011;35673;51.482;7.436;2022-11-15T16:35:26;2.88;;;1.38;;
49776;SDS011;35673;51.482;7.436;2022-11-15T16:37:51;3.33;;;1.48;;
49776;SDS011;35673;51.482;7.436;2022-11-15T16:42:56;3.08;;;1.80;;
49776;SDS011;35673;51.482;7.436;2022-11-15T16:45:23;2.85;;;1.58;;
49776;SDS011;35673;51.482;7.436;2022-11-15T16:47:49;2.40;;;1.40;;
49776;SDS011;35673;51.482;7.436;2022-11-15T16:50:20;2.15;;;1.30;;
49776;SDS011;35673;51.482;7.436;2022-11-15T16:52:52;7.18;;;2.95;;
49776;SDS011;35673;51.482;7.436;2022-11-15T16:55:19;8.20;;;5.00;;
49776;SDS011;35673;51.482;7.436;2022-11-15T16:57:45;4.97;;;2.80;;
49776;SDS011;35673;51.482;7.436;2022-11-15T17:00:11;3.13;;;2.10;;
49776;SDS011;35673;51.482;7.436;2022-11-15T17:02:40;3.67;;;2.35;;
49776;SDS011;35673;51.482;7.436;2022-11-15T17:05:10;6.88;;;3.30;;
49776;SDS011;35673;51.482;7.436;2022-11-15T17:07:37;6.97;;;5.65;;
49776;SDS011;35673;51.482;7.436;2022-11-15T17:10:03;4.22;;;1.30;;
49776;SDS011;35673;51.482;7.436;2022-11-15T17:12:29;3.70;;;1.63;;
49776;SDS011;35673;51.482;7.436;2022-11-15T17:14:55;1.40;;;1.20;;
49776;SDS011;35673;51.482;7.436;2022-11-15T17:17:21;1.92;;;1.50;;
49776;SDS011;35673;51.482;7.436;2022-11-15T17:19:47;2.67;;;1.10;;
49776;SDS011;35673;51.482;7.436;2022-11-15T17:22:12;1.60;;;0.82;;
49776;SDS011;35673;51.482;7.436;2022-11-15T17:24:38;2.53;;;1.30;;
49776;SDS011;35673;51.482;7.436;2022-11-15T17:27:03;1.20;;;1.10;;
49776;SDS011;35673;51.482;7.436;2022-11-15T17:29:29;2.15;;;1.27;;